createdAt,value
2018-02-26T00:00:17.280Z,1.8
2018-02-26T00:01:19.976Z,1.8
2018-02-26T00:02:22.395Z,1.8
2018-02-26T00:03:24.808Z,1.8
2018-02-26T00:04:27.232Z,1.8
2018-02-26T00:05:29.647Z,1.8
2018-02-26T00:06:32.051Z,1.8
2018-02-26T00:07:34.474Z,1.8
2018-02-26T00:08:36.889Z,1.8
2018-02-26T00:09:39.877Z,1.8
2018-02-26T00:10:42.297Z,1.8
2018-02-26T00:11:44.713Z,1.8
2018-02-26T00:12:47.438Z,1.8
2018-02-26T00:13:50.200Z,1.8
2018-02-26T00:14:52.892Z,1.8
2018-02-26T00:15:55.583Z,1.8
2018-02-26T00:16:58.278Z,1.8
2018-02-26T00:18:01.262Z,1.8
2018-02-26T00:19:03.674Z,1.8
2018-02-26T00:20:06.370Z,1.8
2018-02-26T00:21:08.804Z,1.8
2018-02-26T00:22:11.509Z,1.8
2018-02-26T00:23:13.898Z,1.9
2018-02-26T00:24:16.603Z,1.8
2018-02-26T00:25:19.019Z,1.9
2018-02-26T00:26:21.430Z,1.8
2018-02-26T00:27:23.848Z,1.9
2018-02-26T00:28:26.543Z,1.9
2018-02-26T00:29:28.958Z,1.9
2018-02-26T00:30:31.390Z,1.9
2018-02-26T00:31:33.802Z,1.9
2018-02-26T00:32:36.223Z,2
2018-02-26T00:33:38.644Z,2
2018-02-26T00:34:41.055Z,2
2018-02-26T00:35:43.478Z,2
2018-02-26T00:36:45.893Z,2
2018-02-26T00:37:48.299Z,1.9
2018-02-26T00:38:51.011Z,1.9
2018-02-26T00:39:53.428Z,1.9
2018-02-26T00:40:55.834Z,1.9
2018-02-26T00:41:58.259Z,1.9
2018-02-26T00:43:00.672Z,1.8
2018-02-26T00:44:03.088Z,1.8
2018-02-26T00:45:05.502Z,1.8
2018-02-26T00:46:07.916Z,1.8
2018-02-26T00:47:10.327Z,1.8
2018-02-26T00:48:13.038Z,1.9
2018-02-26T00:49:15.469Z,1.9
2018-02-26T00:50:17.885Z,1.9
2018-02-26T00:51:20.582Z,1.9
2018-02-26T00:52:23.039Z,1.9
2018-02-26T00:53:25.405Z,1.9
2018-02-26T00:54:28.104Z,1.9
2018-02-26T00:55:30.528Z,1.9
2018-02-26T00:56:32.934Z,1.9
2018-02-26T00:57:35.345Z,1.9
2018-02-26T00:58:37.769Z,1.9
2018-02-26T00:59:40.184Z,1.9
2018-02-26T01:00:42.598Z,1.9
2018-02-26T01:01:45.015Z,1.9
2018-02-26T01:02:47.421Z,1.9
2018-02-26T01:03:49.852Z,1.9
2018-02-26T01:04:52.835Z,1.8
2018-02-26T01:05:55.248Z,1.9
2018-02-26T01:06:57.663Z,1.9
2018-02-26T01:08:00.086Z,1.9
2018-02-26T01:09:02.790Z,1.9
2018-02-26T01:10:05.210Z,1.9
2018-02-26T01:11:07.906Z,1.9
2018-02-26T01:12:10.317Z,2
2018-02-26T01:13:12.742Z,2
2018-02-26T01:14:15.155Z,2
2018-02-26T01:15:17.570Z,2
2018-02-26T01:16:19.987Z,2
2018-02-26T01:17:22.406Z,2.1
2018-02-26T01:18:25.397Z,2.1
2018-02-26T01:19:27.810Z,2.1
2018-02-26T01:20:30.237Z,2.1
2018-02-26T01:21:32.941Z,2.2
2018-02-26T01:22:35.346Z,2.2
2018-02-26T01:23:37.770Z,2.2
2018-02-26T01:24:40.469Z,2.3
2018-02-26T01:25:42.893Z,2.3
2018-02-26T01:26:45.307Z,2.3
2018-02-26T01:27:47.720Z,2.2
2018-02-26T01:28:50.145Z,2.3
2018-02-26T01:29:52.865Z,2.3
2018-02-26T01:30:55.277Z,2.2
2018-02-26T01:31:57.691Z,2.3
2018-02-26T01:33:00.111Z,2.3
2018-02-26T01:34:02.821Z,2.3
2018-02-26T01:35:05.250Z,2.3
2018-02-26T01:36:07.670Z,2.3
2018-02-26T01:37:10.357Z,2.3
2018-02-26T01:38:12.775Z,2.3
2018-02-26T01:39:15.186Z,2.3
2018-02-26T01:40:17.605Z,2.3
2018-02-26T01:41:20.015Z,2.3
2018-02-26T01:42:22.722Z,2.2
2018-02-26T01:43:25.452Z,2.2
2018-02-26T01:44:28.505Z,2.2
2018-02-26T01:45:30.916Z,2.2
2018-02-26T01:46:33.333Z,2.2
2018-02-26T01:47:35.749Z,2.2
2018-02-26T01:48:38.476Z,2.2
2018-02-26T01:49:40.895Z,2.2
2018-02-26T01:50:43.310Z,2.3
2018-02-26T01:51:45.728Z,2.3
2018-02-26T01:52:48.441Z,2.3
2018-02-26T01:53:51.150Z,2.3
2018-02-26T01:54:53.572Z,2.3
2018-02-26T01:55:55.993Z,2.3
2018-02-26T01:56:58.402Z,2.4
2018-02-26T01:58:00.824Z,2.4
2018-02-26T01:59:03.527Z,2.4
2018-02-26T02:00:05.947Z,2.4
2018-02-26T02:01:08.652Z,2.4
2018-02-26T02:02:11.371Z,2.4
2018-02-26T02:03:13.772Z,2.4
2018-02-26T02:04:16.465Z,2.4
2018-02-26T02:05:19.166Z,2.4
2018-02-26T02:06:21.587Z,2.4
2018-02-26T02:07:24.288Z,2.4
2018-02-26T02:08:26.978Z,2.4
2018-02-26T02:09:29.407Z,2.4
2018-02-26T02:10:32.097Z,2.4
2018-02-26T02:11:34.516Z,2.4
2018-02-26T02:12:36.941Z,2.4
2018-02-26T02:13:39.356Z,2.4
2018-02-26T02:14:41.777Z,2.5
2018-02-26T02:15:44.205Z,2.5
2018-02-26T02:16:46.617Z,2.4
2018-02-26T02:17:49.033Z,2.4
2018-02-26T02:18:51.452Z,2.4
2018-02-26T02:19:53.868Z,2.4
2018-02-26T02:20:56.290Z,2.4
2018-02-26T02:21:58.696Z,2.4
2018-02-26T02:23:01.114Z,2.4
2018-02-26T02:24:03.813Z,2.4
2018-02-26T02:25:06.227Z,2.4
2018-02-26T02:26:08.927Z,2.4
2018-02-26T02:27:11.344Z,2.4
2018-02-26T02:28:13.758Z,2.4
2018-02-26T02:29:16.188Z,2.4
2018-02-26T02:30:18.606Z,2.4
2018-02-26T02:31:21.018Z,2.3
2018-02-26T02:32:23.729Z,2.3
2018-02-26T02:33:26.150Z,2.3
2018-02-26T02:34:28.562Z,2.3
2018-02-26T02:35:31.290Z,2.3
2018-02-26T02:36:33.697Z,2.3
2018-02-26T02:37:36.406Z,2.3
2018-02-26T02:38:39.113Z,2.3
2018-02-26T02:39:41.526Z,2.3
2018-02-26T02:40:43.937Z,2.2
2018-02-26T02:41:46.652Z,2.2
2018-02-26T02:42:49.060Z,2.1
2018-02-26T02:43:51.487Z,2.1
2018-02-26T02:44:54.189Z,2.1
2018-02-26T02:45:56.604Z,2.1
2018-02-26T02:46:59.026Z,2.1
2018-02-26T02:48:02.055Z,2.1
2018-02-26T02:49:04.765Z,2.2
2018-02-26T02:50:07.183Z,2.2
2018-02-26T02:51:09.591Z,2.2
2018-02-26T02:52:12.010Z,2.2
2018-02-26T02:53:14.426Z,2.2
2018-02-26T02:54:16.838Z,2.2
2018-02-26T02:55:19.269Z,2.2
2018-02-26T02:56:22.018Z,2.2
2018-02-26T02:57:24.432Z,2.2
2018-02-26T02:58:26.862Z,2.2
2018-02-26T02:59:29.283Z,2.2
2018-02-26T03:00:31.695Z,2.2
2018-02-26T03:01:34.113Z,2.2
2018-02-26T03:02:36.813Z,2.2
2018-02-26T03:03:39.526Z,2.2
2018-02-26T03:04:41.934Z,2.1
2018-02-26T03:05:44.640Z,2.1
2018-02-26T03:06:47.060Z,2.2
2018-02-26T03:07:49.763Z,2.2
2018-02-26T03:08:52.173Z,2.1
2018-02-26T03:09:54.596Z,2.2
2018-02-26T03:10:57.020Z,2.2
2018-02-26T03:11:59.433Z,2.2
2018-02-26T03:13:01.843Z,2.3
2018-02-26T03:14:04.549Z,2.3
2018-02-26T03:15:06.964Z,2.3
2018-02-26T03:16:09.375Z,2.4
2018-02-26T03:17:12.098Z,2.4
2018-02-26T03:18:14.512Z,2.4
2018-02-26T03:19:17.210Z,2.4
2018-02-26T03:20:19.630Z,2.4
2018-02-26T03:21:22.048Z,2.4
2018-02-26T03:22:24.453Z,2.4
2018-02-26T03:23:26.869Z,2.5
2018-02-26T03:24:29.275Z,2.4
2018-02-26T03:25:31.698Z,2.4
2018-02-26T03:26:34.119Z,2.4
2018-02-26T03:27:36.827Z,2.5
2018-02-26T03:28:39.241Z,2.4
2018-02-26T03:29:41.662Z,2.4
2018-02-26T03:30:44.080Z,2.4
2018-02-26T03:31:46.551Z,2.4
2018-02-26T03:32:49.223Z,2.4
2018-02-26T03:33:51.624Z,2.4
2018-02-26T03:34:54.335Z,2.4
2018-02-26T03:35:56.761Z,2.4
2018-02-26T03:36:59.173Z,2.4
2018-02-26T03:38:01.593Z,2.5
2018-02-26T03:39:04.007Z,2.5
2018-02-26T03:40:06.428Z,2.5
2018-02-26T03:41:09.138Z,2.5
2018-02-26T03:42:11.546Z,2.5
2018-02-26T03:43:13.961Z,2.5
2018-02-26T03:44:16.370Z,2.5
2018-02-26T03:45:18.786Z,2.4
2018-02-26T03:46:21.203Z,2.4
2018-02-26T03:47:23.613Z,2.4
2018-02-26T03:48:26.031Z,2.5
2018-02-26T03:49:28.453Z,2.5
2018-02-26T03:50:30.859Z,2.5
2018-02-26T03:51:33.851Z,2.5
2018-02-26T03:52:36.563Z,2.5
2018-02-26T03:53:38.966Z,2.5
2018-02-26T03:54:41.388Z,2.5
2018-02-26T03:55:43.809Z,2.5
2018-02-26T03:56:46.509Z,2.5
2018-02-26T03:57:48.930Z,2.4
2018-02-26T03:58:51.348Z,2.4
2018-02-26T03:59:53.748Z,2.4
2018-02-26T04:00:56.456Z,2.4
2018-02-26T04:01:58.875Z,2.4
2018-02-26T04:03:01.290Z,2.4
2018-02-26T04:04:03.991Z,2.4
2018-02-26T04:05:06.395Z,2.3
2018-02-26T04:06:08.813Z,2.3
2018-02-26T04:07:11.243Z,2.3
2018-02-26T04:08:13.651Z,2.3
2018-02-26T04:09:16.062Z,2.3
2018-02-26T04:10:18.480Z,2.3
2018-02-26T04:11:21.169Z,2.3
2018-02-26T04:12:23.592Z,2.3
2018-02-26T04:13:26.003Z,2.2
2018-02-26T04:14:28.413Z,2.2
2018-02-26T04:15:31.122Z,2.2
2018-02-26T04:16:33.538Z,2.2
2018-02-26T04:17:35.960Z,2.2
2018-02-26T04:18:38.365Z,2.2
2018-02-26T04:19:40.777Z,2.2
2018-02-26T04:20:43.197Z,2.2
2018-02-26T04:21:45.612Z,2.2
2018-02-26T04:22:48.032Z,2.2
2018-02-26T04:23:50.447Z,2.2
2018-02-26T04:24:52.860Z,2.2
2018-02-26T04:25:55.289Z,2.2
2018-02-26T04:26:57.712Z,2.2
2018-02-26T04:28:00.417Z,2.2
2018-02-26T04:29:02.824Z,2.1
2018-02-26T04:30:05.242Z,2.2
2018-02-26T04:31:07.664Z,2.2
2018-02-26T04:32:10.083Z,2.2
2018-02-26T04:33:12.488Z,2.2
2018-02-26T04:34:14.902Z,2.2
2018-02-26T04:35:17.888Z,2.2
2018-02-26T04:36:20.301Z,2.2
2018-02-26T04:37:22.724Z,2.2
2018-02-26T04:38:25.143Z,2.3
2018-02-26T04:39:27.839Z,2.2
2018-02-26T04:40:30.264Z,2.3
2018-02-26T04:41:32.680Z,2.2
2018-02-26T04:42:35.089Z,2.2
2018-02-26T04:43:37.506Z,2.2
2018-02-26T04:44:39.928Z,2.2
2018-02-26T04:45:42.338Z,2.2
2018-02-26T04:46:44.746Z,2.2
2018-02-26T04:47:47.171Z,2.2
2018-02-26T04:48:49.588Z,2.2
2018-02-26T04:49:52.000Z,2.2
2018-02-26T04:50:54.410Z,2.3
2018-02-26T04:51:56.824Z,2.3
2018-02-26T04:52:59.234Z,2.3
2018-02-26T04:54:01.658Z,2.3
2018-02-26T04:55:04.068Z,2.3
2018-02-26T04:56:06.480Z,2.3
2018-02-26T04:57:08.907Z,2.3
2018-02-26T04:58:11.322Z,2.3
2018-02-26T04:59:13.733Z,2.3
2018-02-26T05:00:16.730Z,2.3
2018-02-26T05:01:19.148Z,2.3
2018-02-26T05:02:21.564Z,2.3
2018-02-26T05:03:23.978Z,2.3
2018-02-26T05:04:26.387Z,2.3
2018-02-26T05:05:28.803Z,2.3
2018-02-26T05:06:31.230Z,2.3
2018-02-26T05:07:33.642Z,2.2
2018-02-26T05:08:36.056Z,2.2
2018-02-26T05:09:38.467Z,2.3
2018-02-26T05:10:41.176Z,2.2
2018-02-26T05:11:43.587Z,2.3
2018-02-26T05:12:46.002Z,2.3
2018-02-26T05:13:48.407Z,2.3
2018-02-26T05:14:50.824Z,2.3
2018-02-26T05:15:53.528Z,2.3
2018-02-26T05:16:55.945Z,2.3
2018-02-26T05:17:58.644Z,2.3
2018-02-26T05:19:01.064Z,2.3
2018-02-26T05:20:03.480Z,2.4
2018-02-26T05:21:05.900Z,2.3
2018-02-26T05:22:08.614Z,2.3
2018-02-26T05:23:11.028Z,2.3
2018-02-26T05:24:13.435Z,2.3
2018-02-26T05:25:16.140Z,2.3
2018-02-26T05:26:18.555Z,2.3
2018-02-26T05:27:20.969Z,2.3
2018-02-26T05:28:23.395Z,2.3
2018-02-26T05:29:25.799Z,2.3
2018-02-26T05:30:28.224Z,2.2
2018-02-26T05:31:30.635Z,2.2
2018-02-26T05:32:33.046Z,2.2
2018-02-26T05:33:35.458Z,2.2
2018-02-26T05:34:37.881Z,2.2
2018-02-26T05:35:40.301Z,2.1
2018-02-26T05:36:42.715Z,2.1
2018-02-26T05:37:45.126Z,2.1
2018-02-26T05:38:47.548Z,2.1
2018-02-26T05:39:49.965Z,2.1
2018-02-26T05:40:52.669Z,2
2018-02-26T05:41:55.069Z,2
2018-02-26T05:42:57.483Z,2
2018-02-26T05:43:59.897Z,2
2018-02-26T05:45:02.306Z,2
2018-02-26T05:46:04.720Z,1.9
2018-02-26T05:47:07.147Z,1.9
2018-02-26T05:48:09.559Z,1.9
2018-02-26T05:49:12.554Z,1.9
2018-02-26T05:50:14.968Z,1.9
2018-02-26T05:51:17.395Z,1.9
2018-02-26T05:52:19.817Z,1.9
2018-02-26T05:53:22.234Z,1.8
2018-02-26T05:54:24.631Z,1.8
2018-02-26T05:55:27.048Z,1.8
2018-02-26T05:56:29.463Z,1.8
2018-02-26T05:57:31.876Z,1.8
2018-02-26T05:58:34.292Z,1.7
2018-02-26T05:59:36.707Z,1.7
2018-02-26T06:00:39.120Z,1.7
2018-02-26T06:01:41.536Z,1.7
2018-02-26T06:02:44.243Z,1.7
2018-02-26T06:03:46.660Z,1.6
2018-02-26T06:04:49.068Z,1.6
2018-02-26T06:05:51.496Z,1.6
2018-02-26T06:06:53.903Z,1.6
2018-02-26T06:07:56.322Z,1.7
2018-02-26T06:08:58.734Z,1.7
2018-02-26T06:10:01.148Z,1.7
2018-02-26T06:11:03.555Z,1.7
2018-02-26T06:12:05.979Z,1.7
2018-02-26T06:13:08.379Z,1.7
2018-02-26T06:14:10.788Z,1.7
2018-02-26T06:15:13.203Z,1.7
2018-02-26T06:16:15.617Z,1.7
2018-02-26T06:17:18.034Z,1.7
2018-02-26T06:18:20.453Z,1.7
2018-02-26T06:19:22.867Z,1.7
2018-02-26T06:20:25.282Z,1.7
2018-02-26T06:21:28.009Z,1.8
2018-02-26T06:22:30.418Z,1.8
2018-02-26T06:23:32.833Z,1.8
2018-02-26T06:24:35.248Z,1.8
2018-02-26T06:25:37.659Z,1.8
2018-02-26T06:26:40.376Z,1.8
2018-02-26T06:27:42.796Z,1.9
2018-02-26T06:28:45.203Z,1.9
2018-02-26T06:29:47.937Z,1.9
2018-02-26T06:30:50.354Z,1.9
2018-02-26T06:31:52.764Z,1.8
2018-02-26T06:32:55.483Z,1.8
2018-02-26T06:33:57.899Z,1.8
2018-02-26T06:35:00.314Z,1.8
2018-02-26T06:36:02.734Z,1.7
2018-02-26T06:37:05.138Z,1.7
2018-02-26T06:38:07.549Z,1.7
2018-02-26T06:39:09.970Z,1.7
2018-02-26T06:40:12.388Z,1.8
2018-02-26T06:41:14.797Z,1.7
2018-02-26T06:42:17.221Z,1.8
2018-02-26T06:43:19.633Z,1.8
2018-02-26T06:44:22.061Z,1.8
2018-02-26T06:45:24.753Z,1.8
2018-02-26T06:46:27.171Z,1.8
2018-02-26T06:47:29.586Z,1.9
2018-02-26T06:48:32.002Z,1.9
2018-02-26T06:49:34.411Z,1.9
2018-02-26T06:50:36.834Z,1.9
2018-02-26T06:51:39.240Z,1.9
2018-02-26T06:52:41.661Z,2
2018-02-26T06:53:44.073Z,2
2018-02-26T06:54:46.490Z,2
2018-02-26T06:55:48.898Z,2.1
2018-02-26T06:56:51.607Z,2.1
2018-02-26T06:57:54.027Z,2.1
2018-02-26T06:58:56.448Z,2.2
2018-02-26T06:59:58.856Z,2.2
2018-02-26T07:01:01.277Z,2.2
2018-02-26T07:02:03.692Z,2.2
2018-02-26T07:03:06.119Z,2.3
2018-02-26T07:04:08.538Z,2.3
2018-02-26T07:05:10.944Z,2.3
2018-02-26T07:06:13.367Z,2.3
2018-02-26T07:07:15.791Z,2.3
2018-02-26T07:08:18.494Z,2.3
2018-02-26T07:09:20.911Z,2.3
2018-02-26T07:10:23.318Z,2.3
2018-02-26T07:11:25.731Z,2.3
2018-02-26T07:12:28.175Z,2.3
2018-02-26T07:13:30.592Z,2.3
2018-02-26T07:14:33.070Z,2.4
2018-02-26T07:15:35.432Z,2.4
2018-02-26T07:16:37.854Z,2.4
2018-02-26T07:17:40.354Z,2.4
2018-02-26T07:18:42.669Z,2.4
2018-02-26T07:19:45.137Z,2.4
2018-02-26T07:20:47.595Z,2.5
2018-02-26T07:21:50.009Z,2.6
2018-02-26T07:22:52.459Z,2.6
2018-02-26T07:23:54.875Z,2.6
2018-02-26T07:24:57.587Z,2.7
2018-02-26T07:26:00.004Z,2.8
2018-02-26T07:27:02.416Z,2.8
2018-02-26T07:28:05.121Z,2.8
2018-02-26T07:29:07.835Z,2.9
2018-02-26T07:30:10.241Z,2.9
2018-02-26T07:31:12.955Z,2.9
2018-02-26T07:32:15.360Z,3
2018-02-26T07:33:17.779Z,3
2018-02-26T07:34:20.202Z,3
2018-02-26T07:35:22.613Z,3
2018-02-26T07:36:25.034Z,3
2018-02-26T07:37:27.455Z,3
2018-02-26T07:38:29.867Z,3.1
2018-02-26T07:39:32.281Z,3.1
2018-02-26T07:40:34.700Z,3.1
2018-02-26T07:41:37.119Z,3.1
2018-02-26T07:42:39.602Z,3.2
2018-02-26T07:43:41.975Z,3.2
2018-02-26T07:44:44.682Z,3.2
2018-02-26T07:45:47.099Z,3.3
2018-02-26T07:46:49.522Z,3.4
2018-02-26T07:47:52.213Z,3.5
2018-02-26T07:48:54.645Z,3.5
2018-02-26T07:49:57.071Z,3.7
2018-02-26T07:50:59.486Z,3.8
2018-02-26T07:52:02.259Z,4
2018-02-26T07:53:04.927Z,4.2
2018-02-26T07:54:07.353Z,4.4
2018-02-26T07:55:09.775Z,4.6
2018-02-26T07:56:12.194Z,4.8
2018-02-26T07:57:14.611Z,5
2018-02-26T07:58:17.032Z,5.2
2018-02-26T07:59:19.455Z,5.4
2018-02-26T08:00:21.861Z,5.6
2018-02-26T08:01:24.339Z,5.8
2018-02-26T08:02:27.051Z,6
2018-02-26T08:03:29.467Z,6.2
2018-02-26T08:04:31.888Z,6.4
2018-02-26T08:05:34.319Z,6.6
2018-02-26T08:06:36.743Z,6.8
2018-02-26T08:07:39.463Z,7
2018-02-26T08:08:41.884Z,7.1
2018-02-26T08:09:44.306Z,7.3
2018-02-26T08:10:46.740Z,7.4
2018-02-26T08:11:49.174Z,7.6
2018-02-26T08:12:51.595Z,7.7
2018-02-26T08:13:54.024Z,7.9
2018-02-26T08:14:56.459Z,8.1
2018-02-26T08:15:58.881Z,8.3
2018-02-26T08:17:01.600Z,8.5
2018-02-26T08:18:04.034Z,8.7
2018-02-26T08:19:06.466Z,8.9
2018-02-26T08:20:08.889Z,9.1
2018-02-26T08:21:11.321Z,9.2
2018-02-26T08:22:13.739Z,9.4
2018-02-26T08:23:16.164Z,9.6
2018-02-26T08:24:18.876Z,9.7
2018-02-26T08:25:21.307Z,9.8
2018-02-26T08:26:24.010Z,10
2018-02-26T08:27:26.442Z,10.1
2018-02-26T08:28:28.861Z,10.2
2018-02-26T08:29:31.290Z,10.4
2018-02-26T08:30:33.716Z,10.5
2018-02-26T08:31:36.146Z,10.6
2018-02-26T08:32:38.577Z,10.8
2018-02-26T08:33:41.303Z,10.9
2018-02-26T08:34:43.717Z,11
2018-02-26T08:35:46.156Z,11.1
2018-02-26T08:36:48.583Z,11.2
2018-02-26T08:37:51.300Z,11.3
2018-02-26T08:38:54.015Z,11.3
2018-02-26T08:39:56.733Z,11.3
2018-02-26T08:40:59.158Z,11.4
2018-02-26T08:42:01.873Z,11.4
2018-02-26T08:43:04.609Z,11.4
2018-02-26T08:44:07.036Z,11.4
2018-02-26T08:45:09.573Z,11.4
2018-02-26T08:46:12.006Z,11.4
2018-02-26T08:47:14.445Z,11.3
2018-02-26T08:48:17.318Z,11.2
2018-02-26T08:49:20.131Z,11.1
2018-02-26T08:50:23.063Z,11
2018-02-26T08:51:25.589Z,10.8
2018-02-26T08:52:28.022Z,10.8
2018-02-26T08:53:30.451Z,10.7
2018-02-26T08:54:33.211Z,10.7
2018-02-26T08:55:36.243Z,10.6
2018-02-26T08:56:38.668Z,10.6
2018-02-26T08:57:41.108Z,10.5
2018-02-26T08:58:43.815Z,10.4
2018-02-26T08:59:46.228Z,10.4
2018-02-26T09:00:48.958Z,10.3
2018-02-26T09:01:51.678Z,10.2
2018-02-26T09:02:54.106Z,10
2018-02-26T09:03:56.540Z,9.9
2018-02-26T09:04:58.986Z,9.8
2018-02-26T09:06:01.385Z,9.6
2018-02-26T09:07:03.822Z,9.5
2018-02-26T09:08:06.241Z,9.4
2018-02-26T09:09:08.659Z,9.2
2018-02-26T09:10:11.087Z,9.2
2018-02-26T09:11:13.505Z,9
2018-02-26T09:12:15.933Z,8.9
2018-02-26T09:13:18.665Z,8.7
2018-02-26T09:14:21.382Z,8.6
2018-02-26T09:15:23.806Z,8.5
2018-02-26T09:16:26.224Z,8.3
2018-02-26T09:17:28.642Z,8.2
2018-02-26T09:18:31.070Z,8.1
2018-02-26T09:19:33.489Z,8
2018-02-26T09:20:35.916Z,8
2018-02-26T09:21:38.627Z,8.1
2018-02-26T09:22:41.115Z,8.1
2018-02-26T09:23:43.483Z,8.2
2018-02-26T09:24:45.916Z,8.2
2018-02-26T09:25:48.336Z,8.3
2018-02-26T09:26:50.767Z,8.3
2018-02-26T09:27:53.238Z,8.4
2018-02-26T09:28:55.914Z,8.5
2018-02-26T09:29:58.335Z,8.6
2018-02-26T09:31:01.053Z,8.7
2018-02-26T09:32:03.472Z,8.8
2018-02-26T09:33:05.912Z,9
2018-02-26T09:34:08.329Z,9.2
2018-02-26T09:35:10.758Z,9.5
2018-02-26T09:36:13.183Z,9.7
2018-02-26T09:37:15.615Z,9.9
2018-02-26T09:38:18.041Z,10
2018-02-26T09:39:20.478Z,10.2
2018-02-26T09:40:22.892Z,10.3
2018-02-26T09:41:25.320Z,10.3
2018-02-26T09:42:27.765Z,10.3
2018-02-26T09:43:30.189Z,10.3
2018-02-26T09:44:32.910Z,10.2
2018-02-26T09:45:35.331Z,10.1
2018-02-26T09:46:37.760Z,9.9
2018-02-26T09:47:40.180Z,9.8
2018-02-26T09:48:42.622Z,9.7
2018-02-26T09:49:45.035Z,9.6
2018-02-26T09:50:47.464Z,9.5
2018-02-26T09:51:50.179Z,9.4
2018-02-26T09:52:52.607Z,9.4
2018-02-26T09:53:55.036Z,9.3
2018-02-26T09:54:57.458Z,9.2
2018-02-26T09:55:59.879Z,9.2
2018-02-26T09:57:02.316Z,9.2
2018-02-26T09:58:05.073Z,9.1
2018-02-26T09:59:07.754Z,9.1
2018-02-26T10:00:10.181Z,9.1
2018-02-26T10:01:12.929Z,9
2018-02-26T10:02:15.645Z,8.9
2018-02-26T10:03:18.090Z,8.9
2018-02-26T10:04:20.498Z,8.8
2018-02-26T10:05:22.922Z,8.8
2018-02-26T10:06:25.349Z,8.8
2018-02-26T10:07:27.780Z,8.9
2018-02-26T10:08:30.486Z,9.1
2018-02-26T10:09:32.912Z,9.2
2018-02-26T10:10:35.335Z,9.3
2018-02-26T10:11:37.763Z,9.4
2018-02-26T10:12:40.468Z,9.5
2018-02-26T10:13:42.896Z,9.6
2018-02-26T10:14:45.324Z,9.5
2018-02-26T10:15:48.016Z,9.5
2018-02-26T10:16:50.444Z,9.5
2018-02-26T10:17:52.873Z,9.4
2018-02-26T10:18:55.617Z,9.4
2018-02-26T10:19:58.335Z,9.3
2018-02-26T10:21:01.042Z,9.3
2018-02-26T10:22:03.755Z,9.3
2018-02-26T10:23:06.480Z,9.3
2018-02-26T10:24:08.908Z,9.2
2018-02-26T10:25:11.625Z,9.2
2018-02-26T10:26:14.338Z,9.2
2018-02-26T10:27:16.763Z,9.2
2018-02-26T10:28:19.200Z,9.1
2018-02-26T10:29:21.629Z,9
2018-02-26T10:30:24.045Z,9
2018-02-26T10:31:26.470Z,9
2018-02-26T10:32:28.907Z,8.9
2018-02-26T10:33:31.338Z,8.9
2018-02-26T10:34:33.760Z,8.9
2018-02-26T10:35:36.183Z,8.8
2018-02-26T10:36:38.607Z,8.7
2018-02-26T10:37:41.050Z,8.7
2018-02-26T10:38:43.478Z,8.6
2018-02-26T10:39:45.895Z,8.5
2018-02-26T10:40:48.326Z,8.6
2018-02-26T10:41:50.741Z,8.6
2018-02-26T10:42:53.168Z,8.7
2018-02-26T10:43:55.594Z,8.7
2018-02-26T10:44:58.017Z,8.8
2018-02-26T10:46:00.435Z,8.8
2018-02-26T10:47:03.205Z,8.9
2018-02-26T10:48:05.621Z,9
2018-02-26T10:49:08.355Z,9.1
2018-02-26T10:50:10.780Z,9.3
2018-02-26T10:51:13.492Z,9.5
2018-02-26T10:52:16.210Z,9.7
2018-02-26T10:53:18.633Z,9.9
2018-02-26T10:54:21.352Z,10.2
2018-02-26T10:55:24.111Z,10.4
2018-02-26T10:56:26.527Z,10.7
2018-02-26T10:57:28.951Z,10.9
2018-02-26T10:58:31.380Z,11.2
2018-02-26T10:59:34.101Z,11.4
2018-02-26T11:00:36.525Z,11.6
2018-02-26T11:01:39.252Z,11.9
2018-02-26T11:02:41.668Z,12.2
2018-02-26T11:03:44.108Z,12.4
2018-02-26T11:04:46.537Z,12.5
2018-02-26T11:05:48.962Z,12.7
2018-02-26T11:06:51.398Z,12.8
2018-02-26T11:07:53.833Z,12.9
2018-02-26T11:08:56.260Z,12.8
2018-02-26T11:09:58.700Z,12.8
2018-02-26T11:11:01.133Z,12.7
2018-02-26T11:12:03.566Z,12.7
2018-02-26T11:13:05.980Z,12.7
2018-02-26T11:14:08.408Z,12.8
2018-02-26T11:15:10.854Z,12.8
2018-02-26T11:16:13.285Z,12.9
2018-02-26T11:17:15.711Z,13.1
2018-02-26T11:18:18.145Z,13.2
2018-02-26T11:19:20.577Z,13.4
2018-02-26T11:20:23.613Z,13.5
2018-02-26T11:21:26.046Z,13.5
2018-02-26T11:22:28.461Z,13.5
2018-02-26T11:23:31.177Z,13.5
2018-02-26T11:24:33.604Z,13.4
2018-02-26T11:25:36.040Z,13.2
2018-02-26T11:26:38.476Z,13
2018-02-26T11:27:40.891Z,12.8
2018-02-26T11:28:43.324Z,12.6
2018-02-26T11:29:45.765Z,12.3
2018-02-26T11:30:48.194Z,12.1
2018-02-26T11:31:50.624Z,11.8
2018-02-26T11:32:53.053Z,11.6
2018-02-26T11:33:55.485Z,11.4
2018-02-26T11:34:57.920Z,11.2
2018-02-26T11:36:00.350Z,11.1
2018-02-26T11:37:02.768Z,10.9
2018-02-26T11:38:05.210Z,10.7
2018-02-26T11:39:07.622Z,10.6
2018-02-26T11:40:10.058Z,10.4
2018-02-26T11:41:12.774Z,10.2
2018-02-26T11:42:15.207Z,10.1
2018-02-26T11:43:17.941Z,10
2018-02-26T11:44:20.363Z,9.9
2018-02-26T11:45:22.788Z,9.7
2018-02-26T11:46:25.227Z,9.6
2018-02-26T11:47:27.646Z,9.5
2018-02-26T11:48:30.072Z,9.4
2018-02-26T11:49:32.505Z,9.3
2018-02-26T11:50:34.932Z,9.2
2018-02-26T11:51:37.357Z,9.1
2018-02-26T11:52:39.786Z,9
2018-02-26T11:53:42.202Z,8.9
2018-02-26T11:54:44.631Z,8.8
2018-02-26T11:55:47.051Z,8.7
2018-02-26T11:56:49.775Z,8.6
2018-02-26T11:57:52.195Z,8.5
2018-02-26T11:58:54.915Z,8.4
2018-02-26T11:59:57.338Z,8.4
2018-02-26T12:00:59.774Z,8.3
2018-02-26T12:02:02.193Z,8.2
2018-02-26T12:03:04.899Z,8.2
2018-02-26T12:04:07.625Z,8.1
2018-02-26T12:05:10.051Z,8.1
2018-02-26T12:06:12.484Z,8.1
2018-02-26T12:07:15.200Z,8.1
2018-02-26T12:08:17.613Z,8.1
2018-02-26T12:09:20.044Z,8.1
2018-02-26T12:10:22.771Z,8.2
2018-02-26T12:11:25.192Z,8.3
2018-02-26T12:12:27.700Z,8.4
2018-02-26T12:13:30.044Z,8.6
2018-02-26T12:14:32.475Z,8.8
2018-02-26T12:15:34.897Z,9
2018-02-26T12:16:37.326Z,9.2
2018-02-26T12:17:39.746Z,9.4
2018-02-26T12:18:42.181Z,9.7
2018-02-26T12:19:44.608Z,9.9
2018-02-26T12:20:47.040Z,10.2
2018-02-26T12:21:49.456Z,10.4
2018-02-26T12:22:51.889Z,10.6
2018-02-26T12:23:54.314Z,10.7
2018-02-26T12:24:56.757Z,10.8
2018-02-26T12:25:59.178Z,11
2018-02-26T12:27:01.609Z,11.1
2018-02-26T12:28:04.028Z,11.2
2018-02-26T12:29:06.467Z,11.4
2018-02-26T12:30:08.904Z,11.5
2018-02-26T12:31:11.339Z,11.7
2018-02-26T12:32:13.764Z,11.9
2018-02-26T12:33:16.199Z,12.1
2018-02-26T12:34:18.624Z,12.3
2018-02-26T12:35:21.354Z,12.4
2018-02-26T12:36:24.070Z,12.6
2018-02-26T12:37:26.500Z,12.7
2018-02-26T12:38:29.225Z,12.9
2018-02-26T12:39:31.657Z,13
2018-02-26T12:40:34.088Z,13
2018-02-26T12:41:36.508Z,12.9
2018-02-26T12:42:38.944Z,12.9
2018-02-26T12:43:41.369Z,12.9
2018-02-26T12:44:44.254Z,12.8
2018-02-26T12:45:46.932Z,12.7
2018-02-26T12:46:49.363Z,12.7
2018-02-26T12:47:51.789Z,12.7
2018-02-26T12:48:54.519Z,12.8
2018-02-26T12:49:56.945Z,12.8
2018-02-26T12:50:59.381Z,12.9
2018-02-26T12:52:02.099Z,12.9
2018-02-26T12:53:04.538Z,13
2018-02-26T12:54:06.962Z,13.2
2018-02-26T12:55:09.405Z,13.3
2018-02-26T12:56:11.834Z,13.5
2018-02-26T12:57:14.265Z,13.6
2018-02-26T12:58:16.695Z,13.7
2018-02-26T12:59:19.188Z,13.8
2018-02-26T13:00:21.556Z,13.9
2018-02-26T13:01:24.002Z,13.9
2018-02-26T13:02:26.709Z,13.8
2018-02-26T13:03:29.429Z,13.8
2018-02-26T13:04:32.156Z,13.7
2018-02-26T13:05:34.592Z,13.7
2018-02-26T13:06:37.309Z,13.7
2018-02-26T13:07:39.742Z,13.7
2018-02-26T13:08:42.171Z,13.7
2018-02-26T13:09:44.589Z,13.7
2018-02-26T13:10:47.023Z,13.7
2018-02-26T13:11:49.455Z,13.6
2018-02-26T13:12:51.885Z,13.6
2018-02-26T13:13:54.609Z,13.6
2018-02-26T13:14:57.041Z,13.5
2018-02-26T13:15:59.462Z,13.6
2018-02-26T13:17:01.905Z,13.6
2018-02-26T13:18:04.337Z,13.7
2018-02-26T13:19:06.766Z,13.7
2018-02-26T13:20:09.205Z,13.6
2018-02-26T13:21:11.646Z,13.6
2018-02-26T13:22:14.071Z,13.5
2018-02-26T13:23:16.502Z,13.4
2018-02-26T13:24:18.925Z,13.4
2018-02-26T13:25:21.369Z,13.4
2018-02-26T13:26:24.094Z,13.3
2018-02-26T13:27:26.532Z,13.3
2018-02-26T13:28:28.953Z,13.3
2018-02-26T13:29:31.386Z,13.2
2018-02-26T13:30:33.812Z,13.2
2018-02-26T13:31:36.242Z,13.1
2018-02-26T13:32:38.674Z,13.1
2018-02-26T13:33:41.383Z,13.1
2018-02-26T13:34:43.855Z,13.1
2018-02-26T13:35:46.258Z,13.1
2018-02-26T13:36:48.682Z,13.2
2018-02-26T13:37:51.118Z,13.2
2018-02-26T13:38:53.836Z,13.3
2018-02-26T13:39:56.270Z,13.4
2018-02-26T13:40:58.687Z,13.3
2018-02-26T13:42:01.117Z,13.3
2018-02-26T13:43:03.558Z,13.4
2018-02-26T13:44:05.989Z,13.4
2018-02-26T13:45:08.423Z,13.3
2018-02-26T13:46:10.856Z,13.3
2018-02-26T13:47:13.583Z,13.4
2018-02-26T13:48:16.336Z,13.3
2018-02-26T13:49:18.770Z,13.3
2018-02-26T13:50:21.191Z,13.2
2018-02-26T13:51:23.914Z,13.3
2018-02-26T13:52:26.640Z,13.2
2018-02-26T13:53:29.076Z,13.2
2018-02-26T13:54:31.513Z,13.2
2018-02-26T13:55:34.225Z,13.3
2018-02-26T13:56:36.945Z,13.3
2018-02-26T13:57:39.378Z,13.2
2018-02-26T13:58:41.808Z,13.2
2018-02-26T13:59:44.229Z,13.1
2018-02-26T14:00:46.668Z,13.1
2018-02-26T14:01:49.101Z,13.1
2018-02-26T14:02:51.529Z,13.1
2018-02-26T14:03:53.959Z,13.1
2018-02-26T14:04:56.390Z,13.1
2018-02-26T14:05:58.822Z,13.1
2018-02-26T14:07:01.552Z,13.1
2018-02-26T14:08:03.982Z,13.1
2018-02-26T14:09:06.406Z,13
2018-02-26T14:10:08.838Z,13
2018-02-26T14:11:11.264Z,12.9
2018-02-26T14:12:13.693Z,12.9
2018-02-26T14:13:16.121Z,12.9
2018-02-26T14:14:18.571Z,12.8
2018-02-26T14:15:20.990Z,12.8
2018-02-26T14:16:23.432Z,12.8